Terminal Aerodrome Forecast
Issued by NWS

Home | Current Version | Previous Version | Text Only | Print | Product List | Glossary On
Versions: 1 2 3 4 5 6 7 8 9 10 11 12
875
FTUS43 KMPX 301120
TAFRNH
TAF
KRNH 301120Z 3012/0112 06009G15KT P6SM OVC100
     FM301700 05014G20KT P6SM SCT040 OVC060
     FM302000 05016G25KT 6SM -RA BR OVC025
     FM010400 04014G22KT 3SM RA BR OVC008=

USA.gov is the U.S. government's official web portal to all federal, state and local government web resources and services.